createdAt,value
2022-10-08T00:02:43.130Z,11.32
2022-10-08T00:05:56.296Z,11.35
2022-10-08T00:09:00.771Z,11.40
2022-10-08T00:12:03.787Z,11.45
2022-10-08T00:15:07.653Z,11.49
2022-10-08T00:18:10.465Z,11.53
2022-10-08T00:21:17.455Z,11.60
2022-10-08T00:24:21.312Z,11.65
2022-10-08T00:27:24.427Z,11.72
2022-10-08T00:30:27.291Z,11.77
2022-10-08T00:33:30.093Z,11.73
2022-10-08T00:36:36.420Z,11.79
2022-10-08T00:39:39.265Z,11.82
2022-10-08T00:42:42.131Z,11.86
2022-10-08T00:45:46.341Z,11.87
2022-10-08T00:48:49.292Z,11.89
2022-10-08T00:51:57.154Z,11.93
2022-10-08T00:55:00.241Z,11.95
2022-10-08T00:58:08.373Z,11.96
2022-10-08T01:01:11.380Z,11.98
2022-10-08T01:04:15.722Z,11.98
2022-10-08T01:07:27.326Z,12.00
2022-10-08T01:10:40.021Z,11.98
2022-10-08T01:13:50.279Z,12.01
2022-10-08T01:17:02.654Z,12.06
2022-10-08T01:20:43.623Z,12.07
2022-10-08T01:24:09.015Z,12.05
2022-10-08T01:27:20.853Z,12.09
2022-10-08T01:30:24.874Z,12.06
2022-10-08T01:33:33.111Z,12.10
2022-10-08T01:36:44.680Z,12.25
2022-10-08T01:39:50.364Z,12.40
2022-10-08T01:42:57.117Z,12.33
2022-10-08T01:46:06.757Z,12.32
2022-10-08T01:49:15.007Z,12.31
2022-10-08T01:52:24.402Z,12.31
2022-10-08T01:55:31.938Z,12.32
2022-10-08T01:58:42.281Z,12.36
2022-10-08T02:01:53.305Z,12.37
2022-10-08T02:04:57.028Z,12.37
2022-10-08T02:07:59.926Z,12.32
2022-10-08T02:11:02.960Z,12.33
2022-10-08T02:14:08.179Z,12.31
2022-10-08T02:17:22.523Z,12.33
2022-10-08T02:20:32.906Z,12.37
2022-10-08T02:23:40.055Z,12.40
2022-10-08T02:26:48.219Z,12.38
2022-10-08T02:30:02.515Z,12.39
2022-10-08T02:33:10.550Z,12.43
2022-10-08T02:36:17.611Z,12.48
2022-10-08T02:39:21.986Z,12.48
2022-10-08T02:42:27.907Z,12.52
2022-10-08T02:45:37.126Z,12.51
2022-10-08T02:48:42.887Z,12.46
2022-10-08T02:51:49.428Z,12.49
2022-10-08T02:54:54.246Z,12.50
2022-10-08T02:58:01.786Z,12.45
2022-10-08T03:01:14.970Z,12.49
2022-10-08T03:04:23.651Z,12.46
2022-10-08T03:07:30.905Z,12.42
2022-10-08T03:10:36.643Z,12.39
2022-10-08T03:13:43.380Z,12.26
2022-10-08T03:16:49.049Z,12.22
2022-10-08T03:19:52.550Z,12.14
2022-10-08T03:22:56.677Z,12.18
2022-10-08T03:25:59.564Z,12.14
2022-10-08T03:29:02.542Z,12.09
2022-10-08T03:32:07.013Z,12.14
2022-10-08T03:35:09.995Z,12.14
2022-10-08T03:38:15.401Z,12.13
2022-10-08T03:41:19.107Z,12.15
2022-10-08T03:44:22.013Z,12.10
2022-10-08T03:47:26.278Z,12.09
2022-10-08T03:50:29.144Z,12.10
2022-10-08T03:53:34.379Z,12.18
2022-10-08T03:56:37.222Z,12.24
2022-10-08T03:59:40.102Z,12.24
2022-10-08T04:02:44.424Z,12.28
2022-10-08T04:05:50.254Z,12.39
2022-10-08T04:08:53.627Z,12.41
2022-10-08T04:11:56.471Z,12.47
2022-10-08T04:14:59.463Z,12.49
2022-10-08T04:18:03.996Z,12.45
2022-10-08T04:21:09.209Z,12.49
2022-10-08T04:24:12.069Z,12.51
2022-10-08T04:27:14.935Z,12.53
2022-10-08T04:30:17.902Z,12.52
2022-10-08T04:33:22.340Z,12.56
2022-10-08T04:36:25.733Z,12.59
2022-10-08T04:39:28.543Z,12.57
2022-10-08T04:42:31.388Z,12.59
2022-10-08T04:45:34.726Z,12.62
2022-10-08T04:48:41.024Z,12.66
2022-10-08T04:51:43.930Z,12.69
2022-10-08T04:54:46.998Z,12.71
2022-10-08T04:57:49.834Z,12.72
2022-10-08T05:00:53.012Z,12.82
2022-10-08T05:03:58.936Z,12.84
2022-10-08T05:07:01.796Z,12.80
2022-10-08T05:10:05.270Z,12.82
2022-10-08T05:13:08.110Z,12.85
2022-10-08T05:16:12.567Z,12.88
2022-10-08T05:19:16.984Z,12.85
2022-10-08T05:22:19.838Z,12.82
2022-10-08T05:25:22.640Z,12.84
2022-10-08T05:28:25.691Z,12.82
2022-10-08T05:31:30.414Z,12.82
2022-10-08T05:34:34.820Z,12.91
2022-10-08T05:37:37.650Z,12.88
2022-10-08T05:40:40.482Z,12.88
2022-10-08T05:43:43.642Z,12.88
2022-10-08T05:46:46.491Z,12.86
2022-10-08T05:49:50.734Z,12.85
2022-10-08T05:52:53.755Z,12.85
2022-10-08T05:56:01.633Z,12.83
2022-10-08T05:59:04.706Z,12.86
2022-10-08T06:02:07.950Z,12.90
2022-10-08T06:05:12.248Z,12.91
2022-10-08T06:08:15.104Z,12.89
2022-10-08T06:11:17.978Z,12.93
2022-10-08T06:14:21.273Z,12.92
2022-10-08T06:17:24.160Z,12.90
2022-10-08T06:20:31.816Z,12.90
2022-10-08T06:23:35.812Z,12.95
2022-10-08T06:26:40.571Z,12.96
2022-10-08T06:29:43.405Z,12.95
2022-10-08T06:32:46.589Z,12.93
2022-10-08T06:35:50.910Z,12.95
2022-10-08T06:38:55.447Z,12.94
2022-10-08T06:41:58.299Z,12.97
2022-10-08T06:45:06.892Z,13.03
2022-10-08T06:48:10.572Z,13.01
2022-10-08T06:51:18.015Z,13.05
2022-10-08T06:54:20.837Z,13.08
2022-10-08T06:57:23.690Z,13.07
2022-10-08T07:00:26.801Z,13.08
2022-10-08T07:03:29.740Z,13.13
2022-10-08T07:06:34.451Z,13.17
2022-10-08T07:09:37.389Z,13.17
2022-10-08T07:12:40.271Z,13.21
2022-10-08T07:15:43.307Z,13.25
2022-10-08T07:18:47.465Z,13.33
2022-10-08T07:21:51.667Z,13.41
2022-10-08T07:24:54.505Z,13.43
2022-10-08T07:27:57.460Z,13.49
2022-10-08T07:31:04.593Z,13.51
2022-10-08T07:34:11.048Z,13.54
2022-10-08T07:37:15.284Z,13.61
2022-10-08T07:40:18.127Z,13.73
2022-10-08T07:43:20.981Z,13.90
2022-10-08T07:46:23.840Z,14.00
2022-10-08T07:49:26.986Z,14.17
2022-10-08T07:52:32.154Z,14.24
2022-10-08T07:55:34.968Z,14.24
2022-10-08T07:58:38.675Z,14.30
2022-10-08T08:01:41.918Z,14.36
2022-10-08T08:04:44.751Z,14.35
2022-10-08T08:07:53.164Z,14.35
2022-10-08T08:10:58.167Z,14.31
2022-10-08T08:14:00.996Z,14.31
2022-10-08T08:17:04.184Z,14.34
2022-10-08T08:20:07.973Z,14.50
2022-10-08T08:23:12.261Z,14.46
2022-10-08T08:26:17.612Z,14.57
2022-10-08T08:29:20.486Z,14.59
2022-10-08T08:32:28.232Z,14.60
2022-10-08T08:35:31.472Z,14.61
2022-10-08T08:38:37.106Z,14.59
2022-10-08T08:42:16.235Z,14.53
2022-10-08T08:45:46.874Z,14.52
2022-10-08T08:48:55.048Z,14.55
2022-10-08T08:52:00.406Z,14.46
2022-10-08T08:55:14.788Z,14.51
2022-10-08T08:58:27.213Z,14.63
2022-10-08T09:01:35.594Z,14.61
2022-10-08T09:04:45.359Z,14.74
2022-10-08T09:07:54.351Z,14.89
2022-10-08T09:11:01.596Z,15.07
2022-10-08T09:14:28.558Z,15.15
2022-10-08T09:17:33.469Z,15.21
2022-10-08T09:20:40.086Z,15.21
2022-10-08T09:23:43.461Z,15.17
2022-10-08T09:26:47.693Z,15.08
2022-10-08T09:29:50.517Z,14.99
2022-10-08T09:32:54.434Z,14.97
2022-10-08T09:35:57.405Z,14.89
2022-10-08T09:39:01.552Z,14.95
2022-10-08T09:42:17.704Z,14.97
2022-10-08T09:45:34.379Z,15.10
2022-10-08T09:48:37.171Z,15.07
2022-10-08T09:51:43.209Z,15.02
2022-10-08T09:54:48.987Z,14.99
2022-10-08T09:58:00.303Z,14.80
2022-10-08T10:01:07.542Z,14.51
2022-10-08T10:04:21.389Z,14.58
2022-10-08T10:07:25.343Z,14.65
2022-10-08T10:10:33.446Z,14.62
2022-10-08T10:13:41.198Z,14.57
2022-10-08T10:16:46.935Z,14.64
2022-10-08T10:19:56.416Z,14.70
2022-10-08T10:23:04.368Z,14.84
2022-10-08T10:26:14.219Z,14.92
2022-10-08T10:29:22.489Z,14.79
2022-10-08T10:32:32.314Z,14.86
2022-10-08T10:35:42.529Z,14.80
2022-10-08T10:38:52.911Z,14.83
2022-10-08T10:42:04.139Z,14.73
2022-10-08T10:45:20.113Z,14.87
2022-10-08T10:48:22.981Z,14.87
2022-10-08T10:51:36.566Z,14.94
2022-10-08T10:54:52.204Z,15.08
2022-10-08T10:58:17.496Z,14.99
2022-10-08T11:01:29.230Z,15.10
2022-10-08T11:04:43.447Z,14.87
2022-10-08T11:08:03.666Z,14.91
2022-10-08T11:11:20.597Z,14.91
2022-10-08T11:14:39.222Z,14.88
2022-10-08T11:18:06.275Z,15.05
2022-10-08T11:21:19.348Z,15.30
2022-10-08T11:24:38.142Z,15.51
2022-10-08T11:27:51.608Z,15.70
2022-10-08T11:31:05.668Z,15.66
2022-10-08T11:34:21.081Z,15.50
2022-10-08T11:37:29.826Z,15.51
2022-10-08T11:40:37.691Z,15.30
2022-10-08T11:43:44.890Z,15.49
2022-10-08T11:46:48.088Z,15.54
2022-10-08T11:49:56.735Z,15.77
2022-10-08T11:53:17.035Z,15.72
2022-10-08T11:56:20.619Z,15.58
2022-10-08T11:59:33.361Z,15.15
2022-10-08T12:02:39.921Z,15.02
2022-10-08T12:05:50.337Z,15.02
2022-10-08T12:08:57.764Z,15.01
2022-10-08T12:12:14.326Z,14.99
2022-10-08T12:15:50.478Z,15.09
2022-10-08T12:18:54.200Z,15.32
2022-10-08T12:21:59.506Z,15.39
2022-10-08T12:25:04.808Z,15.44
2022-10-08T12:28:50.619Z,15.46
2022-10-08T12:32:02.940Z,15.41
2022-10-08T12:35:21.022Z,15.36
2022-10-08T12:38:35.201Z,15.32
2022-10-08T12:41:49.785Z,15.17
2022-10-08T12:45:05.551Z,15.21
2022-10-08T12:48:16.947Z,15.13
2022-10-08T12:51:31.225Z,15.16
2022-10-08T12:54:35.910Z,15.17
2022-10-08T12:57:41.562Z,15.11
2022-10-08T13:00:45.755Z,15.09
2022-10-08T13:03:49.012Z,15.05
2022-10-08T13:06:53.386Z,14.97
2022-10-08T13:10:00.017Z,14.92
2022-10-08T13:13:04.666Z,14.90
2022-10-08T13:16:11.404Z,14.86
2022-10-08T13:19:19.122Z,14.77
2022-10-08T13:22:26.211Z,14.85
2022-10-08T13:25:36.502Z,14.86
2022-10-08T13:28:59.220Z,14.89
2022-10-08T13:32:06.200Z,14.87
2022-10-08T13:35:23.074Z,14.70
2022-10-08T13:38:28.724Z,14.58
2022-10-08T13:41:32.976Z,14.55
2022-10-08T13:44:37.873Z,14.54
2022-10-08T13:47:40.768Z,14.34
2022-10-08T13:50:45.264Z,13.92
2022-10-08T13:53:48.097Z,13.84
2022-10-08T13:56:52.863Z,13.90
2022-10-08T13:59:56.157Z,13.62
2022-10-08T14:02:59.210Z,13.34
2022-10-08T14:06:02.089Z,13.38
2022-10-08T14:09:06.446Z,13.22
2022-10-08T14:12:11.777Z,13.00
2022-10-08T14:15:16.692Z,12.79
2022-10-08T14:18:19.515Z,12.82
2022-10-08T14:21:22.487Z,12.91
2022-10-08T14:24:25.322Z,12.92
2022-10-08T14:27:29.866Z,12.69
2022-10-08T14:30:32.698Z,12.59
2022-10-08T14:33:35.672Z,12.51
2022-10-08T14:36:41.902Z,12.50
2022-10-08T14:39:44.797Z,12.50
2022-10-08T14:42:50.058Z,12.38
2022-10-08T14:45:53.674Z,12.27
2022-10-08T14:48:56.583Z,12.30
2022-10-08T14:51:59.485Z,12.38
2022-10-08T14:55:02.422Z,12.26
2022-10-08T14:58:06.774Z,12.23
2022-10-08T15:01:09.893Z,12.09
2022-10-08T15:04:15.791Z,11.95
2022-10-08T15:07:18.708Z,11.79
2022-10-08T15:10:21.752Z,11.53
2022-10-08T15:13:25.982Z,11.53
2022-10-08T15:16:28.959Z,11.35
2022-10-08T15:19:31.890Z,11.58
2022-10-08T15:22:34.775Z,11.68
2022-10-08T15:25:37.845Z,11.74
2022-10-08T15:28:43.141Z,11.74
2022-10-08T15:31:46.269Z,12.20
2022-10-08T15:34:49.137Z,12.54
2022-10-08T15:37:52.097Z,12.76
2022-10-08T15:41:03.132Z,12.91
2022-10-08T15:44:11.091Z,12.83
2022-10-08T15:47:16.438Z,12.91
2022-10-08T15:50:19.383Z,12.84
2022-10-08T15:53:22.381Z,12.80
2022-10-08T15:56:25.589Z,12.68
2022-10-08T15:59:30.174Z,12.89
2022-10-08T16:02:33.192Z,12.84
2022-10-08T16:05:36.209Z,12.93
2022-10-08T16:08:41.234Z,12.89
2022-10-08T16:11:44.700Z,12.92
2022-10-08T16:14:49.354Z,12.93
2022-10-08T16:17:52.410Z,12.66
2022-10-08T16:20:55.302Z,12.43
2022-10-08T16:23:58.746Z,12.65
2022-10-08T16:27:01.625Z,12.60
2022-10-08T16:30:06.974Z,12.61
2022-10-08T16:33:09.821Z,12.64
2022-10-08T16:36:13.252Z,12.75
2022-10-08T16:39:19.233Z,12.70
2022-10-08T16:42:22.220Z,12.47
2022-10-08T16:45:26.554Z,12.60
2022-10-08T16:48:29.509Z,12.66
2022-10-08T16:51:34.523Z,12.68
2022-10-08T16:54:37.725Z,12.67
2022-10-08T16:57:40.578Z,12.69
2022-10-08T17:00:45.112Z,12.66
2022-10-08T17:03:48.695Z,12.52
2022-10-08T17:06:51.860Z,12.28
2022-10-08T17:09:54.784Z,12.28
2022-10-08T17:12:57.638Z,12.27
2022-10-08T17:16:03.574Z,12.22
2022-10-08T17:19:07.281Z,12.14
2022-10-08T17:22:10.535Z,12.13
2022-10-08T17:25:13.432Z,12.10
2022-10-08T17:28:16.636Z,12.11
2022-10-08T17:31:23.375Z,11.99
2022-10-08T17:34:26.480Z,11.74
2022-10-08T17:37:29.545Z,11.57
2022-10-08T17:40:32.571Z,11.54
2022-10-08T17:43:35.609Z,11.63
2022-10-08T17:46:42.891Z,11.57
2022-10-08T17:49:46.045Z,11.46
2022-10-08T17:52:49.409Z,11.31
2022-10-08T17:55:58.927Z,11.24
2022-10-08T17:59:02.244Z,11.20
2022-10-08T18:02:06.712Z,11.07
2022-10-08T18:05:10.144Z,10.96
2022-10-08T18:08:13.225Z,10.84
2022-10-08T18:11:17.975Z,10.83
2022-10-08T18:14:21.758Z,10.83
2022-10-08T18:17:26.094Z,10.56
2022-10-08T18:20:29.010Z,10.40
2022-10-08T18:23:33.550Z,10.50
2022-10-08T18:26:37.136Z,10.01
2022-10-08T18:29:40.502Z,9.98
2022-10-08T18:32:45.131Z,10.34
2022-10-08T18:35:48.353Z,10.29
2022-10-08T18:38:55.906Z,10.28
2022-10-08T18:41:58.937Z,10.15
2022-10-08T18:45:01.871Z,10.20
2022-10-08T18:48:06.425Z,10.12
2022-10-08T18:51:12.122Z,10.16
2022-10-08T18:54:15.202Z,9.99
2022-10-08T18:57:18.122Z,9.94
2022-10-08T19:00:21.204Z,9.68
2022-10-08T19:03:26.222Z,9.76
2022-10-08T19:06:31.087Z,9.69
2022-10-08T19:09:34.162Z,9.78
2022-10-08T19:12:37.102Z,9.74
2022-10-08T19:15:40.668Z,9.65
2022-10-08T19:18:53.148Z,9.74
2022-10-08T19:21:56.824Z,9.43
2022-10-08T19:24:59.860Z,9.40
2022-10-08T19:28:03.700Z,9.39
2022-10-08T19:31:13.564Z,9.55
2022-10-08T19:34:20.021Z,9.56
2022-10-08T19:37:23.005Z,9.59
2022-10-08T19:40:26.123Z,9.29
2022-10-08T19:43:29.034Z,9.27
2022-10-08T19:46:32.070Z,9.28
2022-10-08T19:49:36.572Z,8.97
2022-10-08T19:52:39.612Z,8.65
2022-10-08T19:55:42.595Z,8.28
2022-10-08T19:58:48.710Z,8.62
2022-10-08T20:01:51.979Z,8.78
2022-10-08T20:04:56.321Z,8.75
2022-10-08T20:07:59.263Z,8.68
2022-10-08T20:11:03.504Z,8.55
2022-10-08T20:14:06.782Z,8.63
2022-10-08T20:17:09.705Z,8.76
2022-10-08T20:20:31.582Z,8.65
2022-10-08T20:23:36.639Z,8.78
2022-10-08T20:26:41.031Z,8.76
2022-10-08T20:29:44.420Z,8.77
2022-10-08T20:32:47.518Z,8.84
2022-10-08T20:35:52.100Z,8.65
2022-10-08T20:38:55.312Z,8.59
2022-10-08T20:41:59.487Z,8.57
2022-10-08T20:45:02.453Z,8.40
2022-10-08T20:48:05.464Z,8.28
2022-10-08T20:51:11.696Z,8.32
2022-10-08T20:54:17.898Z,8.38
2022-10-08T20:57:20.826Z,8.49
2022-10-08T21:00:23.689Z,8.36
2022-10-08T21:03:26.573Z,8.23
2022-10-08T21:06:32.552Z,7.98
2022-10-08T21:09:35.466Z,7.82
2022-10-08T21:12:38.373Z,7.86
2022-10-08T21:15:41.344Z,7.65
2022-10-08T21:18:44.555Z,7.68
2022-10-08T21:21:48.844Z,7.72
2022-10-08T21:24:51.753Z,7.69
2022-10-08T21:27:54.639Z,7.72
2022-10-08T21:31:01.770Z,7.79
2022-10-08T21:34:07.713Z,7.74
2022-10-08T21:37:13.970Z,7.66
2022-10-08T21:40:17.142Z,7.62
2022-10-08T21:43:19.983Z,7.55
2022-10-08T21:46:26.473Z,7.40
2022-10-08T21:49:29.509Z,7.28
2022-10-08T21:52:33.748Z,7.28
2022-10-08T21:55:37.117Z,7.24
2022-10-08T21:58:41.955Z,7.19
2022-10-08T22:01:46.512Z,7.22
2022-10-08T22:04:49.543Z,7.09
2022-10-08T22:07:53.829Z,7.20
2022-10-08T22:10:57.423Z,7.02
2022-10-08T22:14:00.446Z,6.97
2022-10-08T22:17:03.412Z,6.99
2022-10-08T22:20:07.195Z,6.61
2022-10-08T22:23:11.674Z,6.34
2022-10-08T22:26:16.694Z,6.26
2022-10-08T22:29:20.122Z,6.35
2022-10-08T22:32:23.055Z,6.58
2022-10-08T22:35:26.060Z,6.71
2022-10-08T22:38:31.711Z,6.82
2022-10-08T22:41:35.680Z,6.81
2022-10-08T22:44:38.613Z,6.86
2022-10-08T22:47:41.499Z,6.83
2022-10-08T22:50:44.391Z,6.81
2022-10-08T22:53:49.639Z,6.76
2022-10-08T22:56:52.550Z,6.69
2022-10-08T22:59:55.499Z,6.19
2022-10-08T23:02:58.584Z,6.35
2022-10-08T23:06:03.617Z,6.35
2022-10-08T23:09:12.465Z,6.36
2022-10-08T23:12:15.411Z,6.39
2022-10-08T23:15:18.284Z,6.49
2022-10-08T23:18:21.163Z,6.59
2022-10-08T23:21:24.864Z,6.38
2022-10-08T23:24:29.395Z,6.38
2022-10-08T23:27:32.335Z,6.52
2022-10-08T23:30:43.133Z,6.45
2022-10-08T23:33:48.382Z,6.30
2022-10-08T23:36:51.298Z,6.16
2022-10-08T23:39:57.900Z,6.06
2022-10-08T23:43:00.966Z,6.13
2022-10-08T23:46:04.255Z,6.09
2022-10-08T23:49:07.373Z,5.72
2022-10-08T23:52:10.433Z,5.85
2022-10-08T23:55:14.814Z,5.96
2022-10-08T23:58:18.864Z,5.97
